Vanndale, Arkansas
Current Conditions -  °F | °C
As of 4:56 AM on Thursday 23 Oct 2014 (Local Time) from KM19 Reporting Station
Clear Clear  
Wind Chill: 38°   Ceiling: Unl
Heat Index: 42°   Visibility: 10mi
Dew Point: 42°   Wind: 6mph
Humidity: 100%   Direction: 350°N
Pressure: 30.21"   Gusts: NA
Location:  35.31°N, 90.77°W
Report Text: KM19 230956Z AUTO 35005KT 10SM CLR 06/06 A3021 RMK AO2 T00550055 SLP227
Loading
Personal Weather Stations






























Interactive Weather Map
Tropical Storm Tracking
New forecast layout! Learn more

10-Day Weather Forecast

Advertisements
Track Severe Weather on mobile